Airfield :
LOGIN :

Register | Disclaimer

   EN    FR    IT 

 










Legend :    VFR   Marginal VFR   IFR   Intensive IFR   Very Intensive IFR
Visi :
Ceiling :
>= 8 km
>= 3000ft
5 to 8 km
1000 to 3000 ft
1500m to 5 km
500 to 1000 ft
800 to 1500m
200 to 500 ft
< 800m
< 200 ft
Symbols :   Thunderstorms  Fog  Heavy snow  Heavy precipitations  Wind > 20 kt
SIGMETs :     Misc.  Thunderstorms  Icing  Turbulence  Mountain Waves  Volcanic Ashes






- Airport Elevation : 348 ft
- IATA code : STN


EGSS - London Stansted

CURRENT METAR :
  • 190820Z AUTO VRB03KT 9999 BKN007 OVC017 13/12 Q1015

EXPIRED METARs :
  • 190750Z AUTO 02005KT 9999 OVC006 12/11 Q1015
  • 190720Z AUTO 36003KT 9999 OVC005 12/11 Q1016
  • 190650Z AUTO 36005KT 330V040 9999 BKN004 OVC009 12/11 Q1015
  • 190620Z AUTO 35005KT 9999 BKN004 OVC008 12/11 Q1015
  • 190550Z AUTO 34004KT 310V020 9999 BKN004 OVC010 12/11 Q1016

TAF AMD TAF EGSS
Valid from the 19 at 07:00 until the 20 at 12:00 UTC


190727Z 1907/2012 36006KT 9999 BKN004
BECMG 1908/1911 09010KT BKN018
PROB30
TEMPO 1915/1922 BKN014
PROB30
TEMPO 1921/2003 5000 SHRA
BECMG 1922/2001 BKN009
TEMPO 2002/2012 BKN003
PROB40
TEMPO 2003/2010 3000 RADZ
PROB30
TEMPO 2010/2012 6000 -SHRA
ATIS : +44 1279 669 325



MET'MAP, your aeronautical weather chart ! - Copyright ORBIFLY December 2007 - Disclaimer

ORBIFLY MET'MAP TEAM :

Programming & Development : Alexandra Zaïnal
Concept & original design : Baudouin d'Aumeries
Assistance for programming : Marc-Olivier Méhu
Technical & hardware support : Manuel Goepfert

Contact : metmap@orbifly.com




SOURCES & CREDITS :

   NOAA